Time;durP1;ratioP1;P1;durP2;ratioP2;P2;SDS_P1;SDS_P2;PMS_P1;PMS_P2;Temp;Humidity;BMP_temperature;BMP_pressure;BME280_temperature;BME280_humidity;BME280_pressure;Samples;Min_cycle;Max_cycle;Signal;HPM_P1;HPM_P2
2023/07/23 00:01:27;;;;;;;4.10;3.30;;;;;;;15.65;85.15;98705.83;105841;1253;61189;-22
2023/07/23 00:03:54;;;;;;;4.60;3.50;;;;;;;15.35;86.36;98711.46;105686;1260;61491;-22
2023/07/23 00:06:21;;;;;;;3.70;2.20;;;;;;;15.11;87.84;98712.46;105704;1256;73879;-21
2023/07/23 00:08:48;;;;;;;3.80;2.70;;;;;;;15.42;87.92;98711.30;105748;1255;74279;-22
2023/07/23 00:11:15;;;;;;;3.40;2.90;;;;;;;15.81;85.76;98714.27;105858;1254;72041;-21
2023/07/23 00:13:42;;;;;;;3.50;3.10;;;;;;;15.76;84.95;98710.27;105690;1253;61855;-22
2023/07/23 00:16:09;;;;;;;4.50;3.40;;;;;;;15.51;86.01;98710.10;105788;1256;61148;-21
2023/07/23 00:18:36;;;;;;;6.60;3.70;;;;;;;15.21;87.72;98714.58;105872;1255;73824;-22
2023/07/23 00:21:04;;;;;;;4.60;2.30;;;;;;;15.01;89.56;98716.44;105979;1256;74259;-21
2023/07/23 00:23:31;;;;;;;4.40;2.60;;;;;;;15.40;89.06;98713.06;105888;1254;72650;-22
2023/07/23 00:25:58;;;;;;;6.20;3.30;;;;;;;15.81;86.85;98711.65;105609;1251;61154;-22
2023/07/23 00:28:24;;;;;;;7.10;3.10;;;;;;;15.75;86.41;98707.02;105611;1256;61093;-21
2023/07/23 00:30:51;;;;;;;4.40;3.40;;;;;;;15.52;87.33;98703.39;105819;1254;73850;-22
2023/07/23 00:33:20;;;;;;;3.60;3.30;;;;;;;15.29;88.88;98708.84;105633;1251;74052;-22
2023/07/23 00:35:47;;;;;;;5.80;2.30;;;;;;;15.11;89.58;98708.63;105851;1254;73127;-22
2023/07/23 00:38:14;;;;;;;3.10;2.50;;;;;;;15.52;89.47;98706.91;105694;1253;61043;-22
2023/07/23 00:40:41;;;;;;;4.20;2.40;;;;;;;15.95;87.26;98700.52;105949;1253;61114;-24
2023/07/23 00:43:10;;;;;;;4.90;2.90;;;;;;;15.92;86.32;98702.31;105684;1254;73543;-23
2023/07/23 00:45:37;;;;;;;4.30;3.40;;;;;;;15.68;86.58;98701.00;105651;1257;74359;-23
2023/07/23 00:48:05;;;;;;;4.00;3.60;;;;;;;15.41;87.67;98704.38;105664;1253;72925;-22
2023/07/23 00:50:32;;;;;;;4.80;2.60;;;;;;;15.15;88.94;98704.54;105629;1256;61849;-22
2023/07/23 00:52:59;;;;;;;3.60;2.30;;;;;;;15.47;89.06;98705.33;105851;1256;61135;-22
2023/07/23 00:55:26;;;;;;;3.20;2.90;;;;;;;15.83;86.96;98704.08;105761;1253;73735;-23
2023/07/23 00:57:53;;;;;;;4.10;3.30;;;;;;;15.79;86.15;98707.31;105642;1260;74287;-23
2023/07/23 01:00:20;;;;;;;5.10;3.20;;;;;;;15.57;86.59;98704.42;105741;1254;72394;-22
2023/07/23 01:02:47;;;;;;;3.80;3.20;;;;;;;15.29;87.82;98711.27;105569;1254;61080;-22
2023/07/23 01:05:14;;;;;;;4.90;2.20;;;;;;;15.03;89.22;98717.31;105534;1258;61292;-22
2023/07/23 01:07:42;;;;;;;2.80;2.20;;;;;;;15.35;89.00;98720.92;105584;1251;73697;-23
2023/07/23 01:10:09;;;;;;;3.60;2.80;;;;;;;15.72;86.74;98721.90;105795;1256;74029;-23
2023/07/23 01:12:38;;;;;;;5.40;3.60;;;;;;;15.65;86.26;98715.71;105619;1255;72502;-23
2023/07/23 01:15:06;;;;;;;3.40;3.10;;;;;;;15.37;87.59;98720.73;105525;1257;61156;-22
2023/07/23 01:17:35;;;;;;;5.00;3.00;;;;;;;15.10;88.15;98722.67;105480;1251;61004;-23
2023/07/23 01:20:04;;;;;;;3.20;2.00;;;;;;;14.87;89.47;98717.02;105466;1260;73627;-23
2023/07/23 01:22:36;;;;;;;3.00;2.20;;;;;;;15.25;89.22;98718.96;105691;1258;74250;-23
2023/07/23 01:25:04;;;;;;;4.00;2.60;;;;;;;15.65;87.07;98715.97;105516;1260;72426;-23
2023/07/23 01:27:32;;;;;;;5.10;3.40;;;;;;;15.60;86.60;98716.56;105501;1253;61055;-23
2023/07/23 01:29:59;;;;;;;2.90;2.50;;;;;;;15.37;87.30;98717.63;105287;1254;61087;-23
2023/07/23 01:32:26;;;;;;;5.80;3.40;;;;;;;15.13;88.19;98721.20;105777;1254;74105;-23
2023/07/23 01:34:54;;;;;;;7.00;1.90;;;;;;;14.91;89.68;98721.04;105673;1253;74303;-23
2023/07/23 01:37:21;;;;;;;3.40;2.00;;;;;;;15.28;89.35;98721.98;105626;1253;72681;-23
2023/07/23 01:39:49;;;;;;;6.50;3.20;;;;;;;15.65;87.37;98716.48;105718;1254;61137;-23
2023/07/23 01:42:16;;;;;;;3.10;2.80;;;;;;;15.63;86.54;98714.66;105743;1259;61185;-23
2023/07/23 01:44:43;;;;;;;3.40;3.10;;;;;;;15.41;86.76;98714.17;105709;1253;73809;-23
2023/07/23 01:47:10;;;;;;;5.90;3.20;;;;;;;15.10;88.00;98718.83;105701;1254;74364;-23
2023/07/23 01:49:36;;;;;;;2.30;1.90;;;;;;;14.81;89.69;98720.78;105870;1256;72494;-23
2023/07/23 01:52:04;;;;;;;4.00;2.20;;;;;;;15.15;89.50;98717.84;105875;1253;61084;-23
2023/07/23 01:54:31;;;;;;;3.60;2.90;;;;;;;15.51;87.47;98720.98;105744;1257;61704;-23
2023/07/23 01:56:57;;;;;;;4.30;2.70;;;;;;;15.50;86.14;98715.85;105738;1254;74231;-23
2023/07/23 01:59:25;;;;;;;3.40;2.90;;;;;;;15.29;86.44;98716.20;105677;1253;74180;-23
2023/07/23 02:01:52;;;;;;;4.60;3.40;;;;;;;14.99;87.51;98716.13;105670;1258;72326;-22
2023/07/23 02:04:18;;;;;;;3.60;1.70;;;;;;;14.76;88.74;98715.10;105770;1253;61735;-23
2023/07/23 02:06:45;;;;;;;2.80;2.30;;;;;;;15.10;89.00;98722.51;105583;1257;61129;-23
2023/07/23 02:09:12;;;;;;;3.00;2.70;;;;;;;15.51;86.75;98716.60;105500;1254;74518;-22
2023/07/23 02:11:39;;;;;;;3.00;2.60;;;;;;;15.49;86.29;98714.94;105861;1256;74945;-23
2023/07/23 02:14:05;;;;;;;4.90;3.20;;;;;;;15.28;86.87;98713.08;105803;1253;72554;-23
2023/07/23 02:16:32;;;;;;;6.90;3.10;;;;;;;15.05;87.61;98712.89;105661;1253;61035;-23
2023/07/23 02:18:59;;;;;;;3.50;1.90;;;;;;;14.82;88.11;98717.91;105474;1257;61228;-23
2023/07/23 02:21:26;;;;;;;3.40;2.40;;;;;;;15.14;88.00;98727.84;105673;1254;74147;-23
2023/07/23 02:23:54;;;;;;;3.60;2.80;;;;;;;15.48;85.96;98728.77;105795;1256;74401;-23
2023/07/23 02:26:21;;;;;;;4.50;2.80;;;;;;;15.44;85.32;98729.23;105675;1257;72326;-23
2023/07/23 02:28:47;;;;;;;3.50;2.80;;;;;;;15.18;85.62;98727.61;105498;1253;61552;-22
2023/07/23 02:31:15;;;;;;;4.40;2.70;;;;;;;14.86;86.65;98731.12;105612;1258;61144;-23
2023/07/23 02:33:43;;;;;;;3.80;1.80;;;;;;;14.55;88.49;98738.44;105898;1254;73654;-22
2023/07/23 02:36:10;;;;;;;4.60;2.30;;;;;;;14.83;88.71;98743.45;105710;1251;74320;-23
2023/07/23 02:38:37;;;;;;;7.10;2.90;;;;;;;15.19;87.52;98742.34;105683;1257;72494;-23
2023/07/23 02:41:06;;;;;;;3.70;2.60;;;;;;;15.18;86.82;98744.73;105746;1254;61198;-23
2023/07/23 02:43:33;;;;;;;3.60;3.30;;;;;;;15.00;87.05;98742.39;105668;1253;61162;-23
2023/07/23 02:46:00;;;;;;;3.60;3.20;;;;;;;14.77;87.44;98740.81;105564;1251;73858;-23
2023/07/23 02:48:27;;;;;;;2.00;1.80;;;;;;;14.58;88.39;98747.45;105899;1256;74120;-23
2023/07/23 02:50:54;;;;;;;2.90;2.30;;;;;;;15.01;88.16;98746.38;105801;1251;73208;-23
2023/07/23 02:53:21;;;;;;;5.70;2.70;;;;;;;15.45;85.04;98752.38;105770;1256;61059;-23
2023/07/23 02:55:48;;;;;;;3.20;2.90;;;;;;;15.49;83.82;98748.61;105763;1253;61170;-23
2023/07/23 02:58:15;;;;;;;3.60;3.20;;;;;;;15.35;84.10;98757.47;105777;1253;74219;-23
2023/07/23 03:00:44;;;;;;;4.30;3.00;;;;;;;15.17;85.12;98758.48;105839;1255;74348;-23
2023/07/23 03:03:11;;;;;;;2.60;1.80;;;;;;;15.06;85.56;98759.83;105547;1258;72749;-23
2023/07/23 03:05:38;;;;;;;3.50;2.50;;;;;;;15.58;85.17;98758.85;105836;1253;61164;-23
2023/07/23 03:08:05;;;;;;;3.10;2.70;;;;;;;16.18;82.61;98757.97;105620;1257;61312;-23
2023/07/23 03:10:32;;;;;;;4.60;2.50;;;;;;;16.28;80.87;98762.80;105677;1256;73832;-22
2023/07/23 03:12:58;;;;;;;3.40;2.90;;;;;;;16.11;80.55;98764.52;105641;1256;74082;-23
2023/07/23 03:15:25;;;;;;;3.30;2.80;;;;;;;15.83;81.06;98767.51;105747;1251;72617;-22
2023/07/23 03:17:53;;;;;;;6.30;2.20;;;;;;;15.59;82.65;98768.83;105772;1257;61986;-23
2023/07/23 03:20:20;;;;;;;2.20;2.00;;;;;;;15.83;82.03;98768.65;105569;1256;61099;-22
2023/07/23 03:22:47;;;;;;;3.50;2.60;;;;;;;16.17;80.52;98771.70;105849;1251;73827;-23
2023/07/23 03:25:14;;;;;;;4.70;2.40;;;;;;;16.11;80.13;98774.59;105888;1251;74201;-22
2023/07/23 03:27:41;;;;;;;4.40;3.00;;;;;;;15.95;80.72;98780.06;105787;1253;72527;-23
2023/07/23 03:30:08;;;;;;;5.70;3.20;;;;;;;15.73;81.78;98787.91;105599;1253;61170;-22
2023/07/23 03:32:35;;;;;;;5.60;2.60;;;;;;;15.59;82.58;98789.74;105416;1259;61094;-22
2023/07/23 03:35:03;;;;;;;5.50;2.80;;;;;;;16.06;81.87;98787.36;105757;1252;73620;-23
2023/07/23 03:37:30;;;;;;;3.20;2.60;;;;;;;16.52;79.59;98786.43;105701;1253;74387;-23
2023/07/23 03:39:57;;;;;;;7.20;3.10;;;;;;;16.58;78.97;98781.93;105620;1253;72645;-23
2023/07/23 03:42:24;;;;;;;6.00;3.00;;;;;;;16.51;79.01;98777.92;105800;1253;61160;-23
2023/07/23 03:44:51;;;;;;;3.80;3.10;;;;;;;16.41;79.43;98779.73;105928;1254;61163;-23
2023/07/23 03:47:19;;;;;;;4.60;2.10;;;;;;;16.28;80.40;98788.35;105738;1254;74450;-23
2023/07/23 03:49:46;;;;;;;2.40;2.10;;;;;;;16.66;80.09;98789.52;105359;1253;74359;-22
2023/07/23 03:52:13;;;;;;;2.80;2.50;;;;;;;16.98;78.29;98796.30;105914;1252;70175;-23
2023/07/23 03:54:40;;;;;;;3.20;2.90;;;;;;;16.99;78.04;98794.23;105847;1253;61088;-23
2023/07/23 03:57:07;;;;;;;4.60;3.10;;;;;;;17.01;78.36;98793.40;105708;1254;61167;-23
2023/07/23 03:59:36;;;;;;;4.10;3.30;;;;;;;16.85;78.65;98794.20;105910;1253;73659;-23
2023/07/23 04:02:03;;;;;;;4.00;3.00;;;;;;;16.65;79.43;98794.34;105636;1260;74888;-23
2023/07/23 04:04:31;;;;;;;7.50;1.90;;;;;;;16.52;80.81;98794.02;105660;1253;72641;-23
2023/07/23 04:06:58;;;;;;;3.20;2.40;;;;;;;16.94;80.28;98789.38;105562;1257;61046;-23
2023/07/23 04:09:25;;;;;;;3.70;2.20;;;;;;;17.38;78.41;98788.30;105803;1253;61155;-23
2023/07/23 04:11:52;;;;;;;4.70;2.60;;;;;;;17.42;78.18;98796.05;105456;1253;73896;-23
2023/07/23 04:14:19;;;;;;;5.40;3.00;;;;;;;17.28;78.95;98793.98;103470;1253;2852311;-22
2023/07/23 04:16:46;;;;;;;5.60;2.70;;;;;;;17.24;79.25;98789.77;105574;1253;61235;-23
2023/07/23 04:19:13;;;;;;;5.60;3.10;;;;;;;17.16;79.89;98789.60;105474;1254;61106;-22
2023/07/23 04:21:40;;;;;;;5.50;3.20;;;;;;;17.11;80.35;98790.25;105757;1256;61100;-23
2023/07/23 04:24:07;;;;;;;5.60;2.60;;;;;;;17.51;79.19;98793.36;105893;1254;73828;-23
2023/07/23 04:26:34;;;;;;;3.30;2.60;;;;;;;17.82;76.90;98788.60;105683;1254;74885;-23
2023/07/23 04:29:01;;;;;;;3.60;2.60;;;;;;;17.79;77.02;98793.14;105872;1252;72818;-23
2023/07/23 04:31:28;;;;;;;5.60;2.90;;;;;;;17.74;77.79;98795.26;105586;1253;61106;-24
2023/07/23 04:33:56;;;;;;;3.70;3.00;;;;;;;17.68;78.18;98799.77;105626;1252;61037;-23
2023/07/23 04:36:24;;;;;;;5.70;3.00;;;;;;;17.43;78.84;98799.11;105631;1253;73540;-23
2023/07/23 04:38:50;;;;;;;6.80;2.10;;;;;;;17.27;79.66;98800.94;105688;1253;73835;-23
2023/07/23 04:41:18;;;;;;;5.10;2.80;;;;;;;17.82;78.60;98805.79;105799;1253;72519;-23
2023/07/23 04:43:44;;;;;;;5.70;2.60;;;;;;;18.29;75.89;98799.06;105528;1253;61189;-23
2023/07/23 04:46:12;;;;;;;7.40;2.70;;;;;;;18.43;76.15;98807.64;105794;1256;61183;-23
2023/07/23 04:48:39;;;;;;;4.60;2.80;;;;;;;18.41;75.48;98804.86;105917;1254;73706;-23
2023/07/23 04:51:08;;;;;;;4.60;3.10;;;;;;;18.29;74.92;98804.38;105872;1254;74462;-23
2023/07/23 04:53:35;;;;;;;4.10;3.40;;;;;;;18.14;75.42;98799.30;105500;1254;72754;-23
2023/07/23 04:56:03;;;;;;;3.80;2.00;;;;;;;17.92;75.69;98802.74;105515;1253;61183;-23
2023/07/23 04:58:30;;;;;;;4.70;2.70;;;;;;;17.92;75.00;98804.24;105705;1259;61222;-23
2023/07/23 05:01:01;;;;;;;5.20;3.10;;;;;;;18.33;74.41;98805.92;105961;1253;72742;-23
2023/07/23 05:03:28;;;;;;;4.50;3.10;;;;;;;18.29;73.22;98803.68;105604;1257;74124;-23
2023/07/23 05:05:55;;;;;;;4.90;3.20;;;;;;;18.24;74.81;98808.67;105786;1253;72725;-23
2023/07/23 05:08:22;;;;;;;5.20;3.50;;;;;;;18.21;75.13;98805.11;105670;1253;61053;-23
2023/07/23 05:10:49;;;;;;;10.40;3.40;;;;;;;18.16;74.95;98806.78;105839;1256;61122;-23
2023/07/23 05:13:16;;;;;;;3.90;2.40;;;;;;;18.14;75.78;98807.89;105812;1253;74362;-23
2023/07/23 05:15:43;;;;;;;4.50;2.20;;;;;;;18.28;75.38;98805.97;105674;1251;74173;-23
2023/07/23 05:18:09;;;;;;;3.50;2.80;;;;;;;18.72;73.30;98811.65;105891;1251;72452;-23
2023/07/23 05:20:36;;;;;;;3.00;2.50;;;;;;;18.98;72.86;98814.38;105647;1253;61132;-23
2023/07/23 05:23:04;;;;;;;6.50;3.00;;;;;;;19.05;72.35;98815.81;105526;1255;61134;-23
2023/07/23 05:25:31;;;;;;;6.10;3.00;;;;;;;18.86;72.58;98817.85;105723;1253;73796;-23
2023/07/23 05:27:58;;;;;;;5.60;3.30;;;;;;;18.71;74.19;98820.05;105439;1251;74344;-23
2023/07/23 05:30:24;;;;;;;3.70;3.30;;;;;;;18.63;73.91;98821.89;105791;1253;71708;-23
2023/07/23 05:32:51;;;;;;;6.00;3.00;;;;;;;18.41;74.52;98822.83;105879;1254;61072;-23
2023/07/23 05:35:18;;;;;;;4.10;3.60;;;;;;;18.42;74.53;98820.80;105923;1256;61100;-23
2023/07/23 05:37:45;;;;;;;4.80;2.40;;;;;;;18.55;75.64;98823.30;105914;1251;73827;-23
2023/07/23 05:40:12;;;;;;;4.40;2.70;;;;;;;19.11;73.06;98824.44;105650;1253;74219;-23
2023/07/23 05:42:39;;;;;;;10.80;3.00;;;;;;;19.51;72.46;98830.00;105629;1253;72697;-23
2023/07/23 05:45:07;;;;;;;3.30;2.60;;;;;;;19.66;71.42;98834.33;105815;1252;61077;-23
2023/07/23 05:47:34;;;;;;;3.60;2.70;;;;;;;19.73;70.76;98835.94;105661;1257;61166;-23
2023/07/23 05:50:01;;;;;;;6.20;3.30;;;;;;;19.60;70.74;98831.20;105733;1253;73800;-23
2023/07/23 05:52:28;;;;;;;5.60;3.40;;;;;;;19.44;71.19;98839.61;105929;1252;74441;-23
2023/07/23 05:54:55;;;;;;;4.40;3.10;;;;;;;19.35;72.48;98846.50;105706;1254;72637;-23
2023/07/23 05:57:22;;;;;;;3.30;2.70;;;;;;;19.32;73.48;98845.70;105729;1251;61163;-24
2023/07/23 05:59:49;;;;;;;3.60;2.30;;;;;;;19.39;72.39;98845.87;105892;1256;61183;-23
2023/07/23 06:02:16;;;;;;;8.30;2.90;;;;;;;19.89;70.93;98848.63;105857;1253;74356;-23
2023/07/23 06:04:43;;;;;;;4.60;2.70;;;;;;;20.20;68.88;98850.97;105846;1254;74011;-23
2023/07/23 06:07:10;;;;;;;5.00;3.00;;;;;;;20.32;68.78;98855.15;105706;1253;72639;-23
2023/07/23 06:09:37;;;;;;;3.80;3.40;;;;;;;20.24;68.52;98855.63;105717;1253;61138;-23
2023/07/23 06:12:04;;;;;;;5.10;3.10;;;;;;;20.11;68.77;98858.84;105487;1253;61161;-23
2023/07/23 06:14:31;;;;;;;3.90;3.20;;;;;;;20.04;69.90;98861.64;105607;1253;73858;-23
2023/07/23 06:16:58;;;;;;;5.10;2.80;;;;;;;19.90;70.68;98859.61;105688;1256;74275;-23
2023/07/23 06:19:25;;;;;;;6.40;2.70;;;;;;;19.91;70.48;98854.00;105692;1253;73126;-23
2023/07/23 06:21:52;;;;;;;4.40;3.00;;;;;;;19.96;70.36;98847.58;105727;1252;61150;-23
2023/07/23 06:24:19;;;;;;;4.20;2.00;;;;;;;19.94;70.75;98853.24;105592;1256;61335;-23
2023/07/23 06:26:46;;;;;;;5.50;2.40;;;;;;;20.42;69.02;98848.02;105806;1256;73869;-23
2023/07/23 06:29:13;;;;;;;5.00;2.00;;;;;;;20.82;66.72;98849.74;105829;1255;74583;-23
2023/07/23 06:31:40;;;;;;;3.80;2.60;;;;;;;20.88;65.95;98853.61;105814;1252;72681;-23
2023/07/23 06:34:09;;;;;;;4.90;2.60;;;;;;;20.85;66.71;98857.83;105595;1253;61231;-23
2023/07/23 06:36:36;;;;;;;4.80;2.50;;;;;;;20.87;66.36;98856.21;105687;1259;61100;-23
2023/07/23 06:39:03;;;;;;;3.00;2.70;;;;;;;20.87;67.51;98855.16;105878;1253;73915;-23
2023/07/23 06:41:30;;;;;;;2.70;2.20;;;;;;;20.88;66.59;98853.66;105816;1253;73915;-23
2023/07/23 06:43:58;;;;;;;6.70;2.60;;;;;;;20.96;66.23;98854.30;105650;1255;71445;-23
2023/07/23 06:46:25;;;;;;;5.60;2.70;;;;;;;21.08;65.94;98860.13;105673;1253;61033;-23
2023/07/23 06:48:52;;;;;;;2.90;2.40;;;;;;;21.05;65.43;98866.14;105602;1256;61062;-23
2023/07/23 06:51:19;;;;;;;4.40;2.80;;;;;;;20.91;65.69;98868.65;105861;1253;74341;-23
2023/07/23 06:53:46;;;;;;;3.20;2.50;;;;;;;20.88;65.95;98868.55;105761;1254;74365;-23
2023/07/23 06:56:13;;;;;;;3.70;2.50;;;;;;;20.84;66.92;98870.32;105812;1253;72468;-23
2023/07/23 06:58:39;;;;;;;6.20;3.00;;;;;;;20.89;67.57;98867.91;105793;1253;61088;-23
2023/07/23 07:01:08;;;;;;;3.70;2.40;;;;;;;20.80;67.09;98869.53;105652;1256;61165;-23
2023/07/23 07:03:35;;;;;;;3.40;2.50;;;;;;;20.80;67.60;98874.66;105494;1254;72990;-23
2023/07/23 07:06:04;;;;;;;4.30;2.30;;;;;;;20.88;66.92;98868.96;105591;1259;74303;-23
2023/07/23 07:08:37;;;;;;;2.30;1.40;;;;;;;20.89;65.52;98872.14;105634;1253;72454;-23
2023/07/23 07:11:09;;;;;;;4.90;1.70;;;;;;;21.67;64.13;98872.05;105671;1252;61070;-23
2023/07/23 07:13:37;;;;;;;4.60;1.90;;;;;;;22.32;62.39;98872.35;105697;1257;61343;-23
2023/07/23 07:16:04;;;;;;;4.10;2.10;;;;;;;22.39;61.19;98863.83;105403;1253;73724;-23
2023/07/23 07:18:31;;;;;;;6.40;2.10;;;;;;;22.15;60.05;98868.41;105774;1253;74377;-23
2023/07/23 07:20:59;;;;;;;3.50;1.90;;;;;;;22.17;61.39;98867.31;105661;1253;72604;-23
2023/07/23 07:23:27;;;;;;;3.00;2.00;;;;;;;22.16;59.88;98868.33;105604;1253;61249;-23
2023/07/23 07:25:57;;;;;;;3.00;2.10;;;;;;;21.96;57.63;98870.75;105600;1259;61231;-23
2023/07/23 07:28:24;;;;;;;4.50;2.30;;;;;;;22.07;60.47;98869.64;105680;1253;73889;-23
2023/07/23 07:30:57;;;;;;;4.10;2.00;;;;;;;22.18;60.73;98869.11;105922;1255;74379;-23
2023/07/23 07:33:24;;;;;;;2.50;2.00;;;;;;;22.12;59.71;98871.80;105733;1253;72641;-23
2023/07/23 07:35:58;;;;;;;4.50;1.80;;;;;;;21.93;59.17;98873.20;105904;1256;61150;-23
2023/07/23 07:38:25;;;;;;;7.40;2.10;;;;;;;21.83;57.77;98868.74;105407;1252;61120;-23
2023/07/23 07:40:52;;;;;;;3.10;2.10;;;;;;;21.78;58.02;98872.08;105672;1258;73834;-23
2023/07/23 07:43:19;;;;;;;2.80;2.20;;;;;;;21.80;58.39;98877.99;105684;1256;74339;-23
2023/07/23 07:45:47;;;;;;;5.80;2.10;;;;;;;21.94;59.49;98876.13;105679;1253;72355;-23
2023/07/23 07:48:14;;;;;;;4.70;2.20;;;;;;;22.06;59.32;98876.21;105653;1253;61173;-23
2023/07/23 07:50:41;;;;;;;4.60;2.30;;;;;;;22.13;58.73;98872.90;105736;1256;61160;-23
2023/07/23 07:53:08;;;;;;;3.60;1.90;;;;;;;22.06;58.28;98874.05;105769;1256;73984;-23
2023/07/23 07:55:40;;;;;;;3.70;1.90;;;;;;;22.20;59.08;98875.48;105636;1255;74327;-23
2023/07/23 07:58:12;;;;;;;3.40;2.00;;;;;;;22.30;59.31;98880.77;105732;1254;71740;-23
2023/07/23 08:00:41;;;;;;;1.70;1.60;;;;;;;22.43;58.06;98881.29;105719;1253;61054;-23
2023/07/23 08:03:09;;;;;;;3.50;1.60;;;;;;;22.51;57.07;98879.45;105779;1253;61083;-23
2023/07/23 08:05:37;;;;;;;4.00;2.00;;;;;;;22.48;54.06;98876.45;105775;1253;73832;-23
2023/07/23 08:08:05;;;;;;;4.30;1.90;;;;;;;22.63;54.11;98879.55;105657;1253;74348;-23
2023/07/23 08:10:35;;;;;;;3.90;1.80;;;;;;;22.82;51.74;98883.16;105699;1253;71408;-23
2023/07/23 08:13:02;;;;;;;2.30;1.70;;;;;;;23.01;53.15;98882.81;105721;1258;61168;-23
2023/07/23 08:15:30;;;;;;;5.90;1.80;;;;;;;23.02;51.18;98885.30;105684;1258;61173;-23
2023/07/23 08:18:01;;;;;;;1.90;1.50;;;;;;;23.10;50.22;98884.98;105613;1258;73680;-23
2023/07/23 08:20:28;;;;;;;3.90;1.40;;;;;;;23.17;50.49;98889.65;105686;1261;73271;-23
2023/07/23 08:22:56;;;;;;;2.90;1.60;;;;;;;23.31;49.72;98887.38;105739;1253;72678;-23
2023/07/23 08:25:23;;;;;;;4.10;1.70;;;;;;;23.51;48.98;98888.77;105669;1253;61158;-23
2023/07/23 08:27:51;;;;;;;2.20;1.60;;;;;;;23.47;49.24;98883.96;105391;1251;61069;-23
2023/07/23 08:30:18;;;;;;;2.00;1.50;;;;;;;23.20;49.28;98890.85;105577;1259;72668;-23
2023/07/23 08:32:45;;;;;;;1.40;1.30;;;;;;;23.36;49.58;98897.63;105701;1253;74285;-23
2023/07/23 08:35:12;;;;;;;2.10;1.40;;;;;;;23.43;47.19;98892.48;105754;1253;72690;-23
2023/07/23 08:37:40;;;;;;;2.10;1.50;;;;;;;23.35;47.97;98895.24;105627;1253;61154;-23
2023/07/23 08:40:08;;;;;;;4.70;2.00;;;;;;;23.51;47.74;98891.02;105690;1253;61035;-22
2023/07/23 08:42:48;;;;;;;2.10;1.40;;;;;;;23.66;47.29;98894.43;105722;1258;73883;-23
2023/07/23 08:45:30;;;;;;;1.90;1.50;;;;;;;23.55;47.08;98888.90;105791;1253;74410;-23
2023/07/23 08:48:17;;;;;;;8.00;2.10;;;;;;;23.87;47.28;98890.98;105727;1253;72639;-23
2023/07/23 08:50:46;;;;;;;2.10;1.40;;;;;;;24.35;46.48;98887.23;105697;1254;61009;-23
2023/07/23 08:53:14;;;;;;;1.60;1.40;;;;;;;24.13;44.22;98890.21;105648;1259;62611;-23
2023/07/23 08:55:45;;;;;;;2.80;1.50;;;;;;;23.51;45.55;98890.33;105617;1253;73714;-23
2023/07/23 08:58:16;;;;;;;3.50;1.20;;;;;;;23.57;46.73;98888.08;105588;1257;74374;-23
2023/07/23 09:00:44;;;;;;;2.50;1.50;;;;;;;23.55;45.56;98888.20;105748;1253;72835;-24
2023/07/23 09:03:11;;;;;;;2.20;1.40;;;;;;;23.21;46.67;98893.19;105628;1253;61229;-23
2023/07/23 09:05:39;;;;;;;2.40;1.40;;;;;;;23.36;48.27;98895.59;105532;1258;61247;-23
2023/07/23 09:08:06;;;;;;;3.60;1.70;;;;;;;23.76;47.64;98889.50;105423;1253;73899;-23
2023/07/23 09:10:33;;;;;;;1.90;1.40;;;;;;;24.18;43.40;98889.05;105600;1259;74442;-23
2023/07/23 09:13:10;;;;;;;2.50;1.40;;;;;;;24.31;44.73;98888.88;105824;1254;72627;-23
2023/07/23 09:15:38;;;;;;;2.70;1.60;;;;;;;24.09;43.70;98894.02;105666;1253;61161;-23
2023/07/23 09:18:05;;;;;;;1.40;1.30;;;;;;;24.41;44.08;98893.70;105870;1256;61277;-23
2023/07/23 09:20:31;;;;;;;2.60;1.20;;;;;;;24.64;43.33;98893.48;105838;1252;74391;-23
2023/07/23 09:23:07;;;;;;;6.50;1.60;;;;;;;24.07;44.28;98888.55;105837;1253;74777;-23
2023/07/23 09:25:34;;;;;;;1.80;1.30;;;;;;;23.53;43.83;98892.52;105666;1252;73214;-23
2023/07/23 09:28:01;;;;;;;1.60;1.40;;;;;;;23.57;45.40;98891.59;105733;1254;61151;-24
2023/07/23 09:30:28;;;;;;;3.00;1.50;;;;;;;23.92;46.11;98893.89;105728;1253;61090;-23
2023/07/23 09:32:57;;;;;;;2.00;1.40;;;;;;;23.94;43.75;98892.21;105857;1253;74358;-23
2023/07/23 09:35:24;;;;;;;2.00;1.30;;;;;;;23.27;42.48;98892.67;105618;1258;74327;-23
2023/07/23 09:37:57;;;;;;;1.80;1.40;;;;;;;22.97;43.63;98895.82;105701;1253;73068;-23
2023/07/23 09:40:37;;;;;;;5.20;1.60;;;;;;;22.92;44.99;98895.25;105555;1252;61167;-23
2023/07/23 09:43:04;;;;;;;1.80;1.20;;;;;;;23.08;44.43;98894.43;105622;1261;61131;-23
2023/07/23 09:45:38;;;;;;;3.10;1.30;;;;;;;23.51;43.23;98888.67;105847;1256;73851;-23
2023/07/23 09:48:06;;;;;;;2.30;1.70;;;;;;;23.93;42.75;98888.73;105769;1253;74326;-23
2023/07/23 09:50:49;;;;;;;2.20;1.40;;;;;;;24.22;39.54;98887.73;105530;1259;72521;-23
2023/07/23 09:53:16;;;;;;;;;;;;;;;24.44;39.52;98886.92;105691;1260;61255;-23
2023/07/23 09:55:45;;;;;;;1.70;1.20;;;;;;;24.05;38.94;98884.60;105913;1255;61058;-23
2023/07/23 09:58:12;;;;;;;2.10;1.40;;;;;;;23.92;40.28;98890.08;105831;1258;73747;-23
2023/07/23 10:00:39;;;;;;;2.90;1.50;;;;;;;23.99;39.68;98889.67;105879;1253;74333;-23
2023/07/23 10:03:06;;;;;;;4.00;1.80;;;;;;;23.94;40.05;98889.84;105654;1254;72645;-23
2023/07/23 10:05:35;;;;;;;2.70;1.50;;;;;;;23.60;40.78;98892.48;105728;1253;61045;-23
2023/07/23 10:08:03;;;;;;;1.70;1.40;;;;;;;23.85;40.83;98893.80;105253;1261;61060;-23
2023/07/23 10:10:30;;;;;;;3.60;1.30;;;;;;;24.20;39.81;98895.98;105824;1254;73793;-23
2023/07/23 10:12:57;;;;;;;5.20;1.70;;;;;;;24.69;40.39;98897.35;105565;1253;74411;-23
2023/07/23 10:15:24;;;;;;;1.60;1.30;;;;;;;25.23;37.50;98889.70;105733;1253;72640;-23
2023/07/23 10:17:58;;;;;;;2.90;1.40;;;;;;;25.51;39.37;98887.63;105720;1252;61251;-23
2023/07/23 10:20:29;;;;;;;3.70;1.60;;;;;;;25.48;38.44;98883.14;105698;1262;61150;-23
2023/07/23 10:22:56;;;;;;;2.90;1.90;;;;;;;25.02;38.83;98890.10;105641;1253;73317;-23
2023/07/23 10:25:24;;;;;;;4.60;1.40;;;;;;;24.47;39.30;98891.64;105914;1256;74290;-23
2023/07/23 10:27:59;;;;;;;4.50;1.60;;;;;;;24.15;40.60;98889.59;105659;1253;72634;-23
2023/07/23 10:30:27;;;;;;;1.80;1.50;;;;;;;23.48;41.68;98893.89;105762;1253;61148;-23
2023/07/23 10:33:09;;;;;;;2.80;1.40;;;;;;;23.10;43.02;98896.27;105696;1253;61136;-23
2023/07/23 10:35:48;;;;;;;6.80;1.60;;;;;;;23.66;43.12;98893.20;105831;1253;72654;-23
2023/07/23 10:38:20;;;;;;;3.00;1.50;;;;;;;24.21;41.53;98894.61;105923;1254;74962;-23
2023/07/23 10:40:47;;;;;;;2.00;1.40;;;;;;;24.65;40.40;98892.77;105663;1261;71139;-23
2023/07/23 10:43:14;;;;;;;1.80;1.50;;;;;;;25.07;38.35;98890.06;105893;1253;61164;-23
2023/07/23 10:45:46;;;;;;;3.10;1.10;;;;;;;25.48;38.54;98890.23;105929;1258;61100;-23
2023/07/23 10:48:17;;;;;;;2.60;1.50;;;;;;;25.75;35.42;98883.98;105792;1258;73784;-23
2023/07/23 10:51:03;;;;;;;1.50;1.20;;;;;;;25.75;36.12;98889.52;105668;1253;74234;-23
2023/07/23 10:53:32;;;;;;;5.30;1.40;;;;;;;25.83;35.72;98881.80;105707;1255;72661;-23
2023/07/23 10:55:59;;;;;;;2.90;1.50;;;;;;;25.93;36.28;98885.42;105654;1253;61158;-23
2023/07/23 10:58:27;;;;;;;2.10;1.40;;;;;;;25.85;36.99;98887.52;105858;1251;61610;-23
2023/07/23 11:00:57;;;;;;;1.70;1.40;;;;;;;25.95;37.30;98889.21;105718;1256;73887;-23
2023/07/23 11:03:25;;;;;;;2.30;1.40;;;;;;;25.82;36.29;98887.59;105786;1253;74362;-23
2023/07/23 11:05:53;;;;;;;2.60;1.60;;;;;;;24.94;37.12;98888.49;105695;1254;72463;-23
2023/07/23 11:08:23;;;;;;;2.20;1.50;;;;;;;24.88;37.20;98893.64;105858;1254;61124;-23
2023/07/23 11:10:58;;;;;;;1.80;1.20;;;;;;;24.91;36.72;98893.04;105472;1255;61110;-23
2023/07/23 11:13:30;;;;;;;1.20;1.00;;;;;;;24.77;36.15;98888.10;105354;1253;72707;-23
2023/07/23 11:15:58;;;;;;;2.00;1.30;;;;;;;24.43;37.67;98894.13;105714;1253;74168;-23
2023/07/23 11:18:25;;;;;;;3.30;1.40;;;;;;;24.31;38.16;98889.38;105754;1253;72623;-23
2023/07/23 11:20:53;;;;;;;3.00;1.60;;;;;;;24.33;39.21;98887.10;105505;1253;61046;-23
2023/07/23 11:23:22;;;;;;;1.60;1.30;;;;;;;24.10;39.23;98888.73;105632;1254;61158;-23
2023/07/23 11:25:51;;;;;;;1.70;1.50;;;;;;;23.79;40.33;98887.35;105737;1259;73823;-23
2023/07/23 11:28:19;;;;;;;3.40;1.50;;;;;;;23.47;42.11;98891.07;105734;1254;74452;-23